createdAt,value
2022-09-28T00:01:28.139Z,98045.59
2022-09-28T00:04:31.388Z,98049.06
2022-09-28T00:07:34.273Z,98046.92
2022-09-28T00:10:37.813Z,98045.40
2022-09-28T00:13:43.070Z,98040.11
2022-09-28T00:16:46.198Z,98037.29
2022-09-28T00:19:49.921Z,98027.56
2022-09-28T00:22:52.740Z,98027.50
2022-09-28T00:25:55.499Z,98020.03
2022-09-28T00:29:00.818Z,98019.20
2022-09-28T00:32:06.515Z,98014.73
2022-09-28T00:35:09.819Z,98012.41
2022-09-28T00:38:12.779Z,98009.47
2022-09-28T00:41:16.417Z,98009.71
2022-09-28T00:44:34.063Z,98011.42
2022-09-28T00:47:51.636Z,98010.00
2022-09-28T00:50:57.685Z,98010.33
2022-09-28T00:54:03.718Z,98007.41
2022-09-28T00:57:06.846Z,98002.86
2022-09-28T01:00:10.890Z,98004.58
2022-09-28T01:03:14.537Z,98001.41
2022-09-28T01:06:20.706Z,97995.58
2022-09-28T01:09:25.664Z,97998.80
2022-09-28T01:12:28.769Z,98002.33
2022-09-28T01:15:37.566Z,98002.20
2022-09-28T01:19:10.639Z,97997.94
2022-09-28T01:22:35.270Z,97992.05
2022-09-28T01:25:38.581Z,97988.14
2022-09-28T01:28:45.462Z,97989.51
2022-09-28T01:32:05.375Z,97986.00
2022-09-28T01:35:31.552Z,97993.67
2022-09-28T01:38:52.155Z,97991.81
2022-09-28T01:42:00.158Z,97992.62
2022-09-28T01:45:09.625Z,97987.20
2022-09-28T01:48:17.678Z,97993.67
2022-09-28T01:51:35.981Z,97992.61
2022-09-28T01:54:44.122Z,97990.71
2022-09-28T01:57:59.614Z,97987.56
2022-09-28T02:01:16.787Z,97987.59
2022-09-28T02:04:36.313Z,97987.71
2022-09-28T02:07:45.405Z,97982.30
2022-09-28T02:11:15.753Z,97983.91
2022-09-28T02:14:20.091Z,97983.70
2022-09-28T02:17:22.980Z,97982.38
2022-09-28T02:20:26.660Z,97981.77
2022-09-28T02:23:32.314Z,97977.98
2022-09-28T02:26:42.215Z,97980.70
2022-09-28T02:29:45.124Z,97979.91
2022-09-28T02:32:53.058Z,97978.11
2022-09-28T02:35:58.676Z,97979.80
2022-09-28T02:39:02.500Z,97976.82
2022-09-28T02:42:11.835Z,97973.64
2022-09-28T02:45:38.167Z,97974.16
2022-09-28T02:49:20.166Z,97976.52
2022-09-28T02:52:42.766Z,97971.39
2022-09-28T02:56:20.674Z,97970.81
2022-09-28T02:59:38.154Z,97970.86
2022-09-28T03:02:57.277Z,97968.77
2022-09-28T03:06:06.525Z,97970.60
2022-09-28T03:09:26.829Z,97963.38
2022-09-28T03:12:30.194Z,97964.55
2022-09-28T03:15:36.148Z,97960.92
2022-09-28T03:18:39.342Z,97952.48
2022-09-28T03:21:42.245Z,97953.80
2022-09-28T03:24:44.997Z,97951.59
2022-09-28T03:27:47.905Z,97950.05
2022-09-28T03:30:50.771Z,97949.21
2022-09-28T03:33:55.943Z,97952.91
2022-09-28T03:36:58.921Z,97948.83
2022-09-28T03:40:02.093Z,97945.02
2022-09-28T03:43:04.910Z,97944.86
2022-09-28T03:46:07.851Z,97943.95
2022-09-28T03:49:11.020Z,97946.06
2022-09-28T03:52:14.628Z,97943.96
2022-09-28T03:55:17.981Z,97943.08
2022-09-28T03:58:21.660Z,97942.59
2022-09-28T04:01:24.542Z,97939.67
2022-09-28T04:04:27.394Z,97934.84
2022-09-28T04:07:31.258Z,97930.89
2022-09-28T04:10:34.212Z,97928.90
2022-09-28T04:13:37.479Z,97926.28
2022-09-28T04:16:40.738Z,97927.95
2022-09-28T04:19:43.817Z,97927.71
2022-09-28T04:22:46.652Z,97925.69
2022-09-28T04:25:52.605Z,97923.66
2022-09-28T04:29:14.184Z,97924.02
2022-09-28T04:32:17.295Z,97925.09
2022-09-28T04:35:20.302Z,97923.52
2022-09-28T04:38:41.514Z,97925.11
2022-09-28T04:41:48.624Z,97924.23
2022-09-28T04:44:51.518Z,97925.57
2022-09-28T04:47:55.009Z,97923.48
2022-09-28T04:51:00.737Z,97921.89
2022-09-28T04:54:03.805Z,97920.67
2022-09-28T04:57:07.232Z,97918.11
2022-09-28T05:00:12.267Z,97919.08
2022-09-28T05:03:15.287Z,97921.34
2022-09-28T05:06:18.185Z,97926.88
2022-09-28T05:09:21.020Z,97926.32
2022-09-28T05:12:24.368Z,97924.30
2022-09-28T05:15:27.313Z,97919.14
2022-09-28T05:18:30.200Z,97917.95
2022-09-28T05:21:33.037Z,97915.44
2022-09-28T05:24:35.826Z,97917.13
2022-09-28T05:27:38.577Z,97912.84
2022-09-28T05:30:41.432Z,97916.65
2022-09-28T05:33:44.511Z,97922.05
2022-09-28T05:36:47.524Z,97922.31
2022-09-28T05:39:50.402Z,97923.65
2022-09-28T05:42:53.430Z,97924.11
2022-09-28T05:46:14.930Z,97925.99
2022-09-28T05:49:17.944Z,97924.05
2022-09-28T05:52:21.001Z,97924.39
2022-09-28T05:55:23.923Z,97928.44
2022-09-28T05:58:41.918Z,97922.15
2022-09-28T06:01:48.006Z,97921.05
2022-09-28T06:04:51.458Z,97924.98
2022-09-28T06:07:59.332Z,97927.91
2022-09-28T06:11:02.658Z,97927.93
2022-09-28T06:14:05.730Z,97934.64
2022-09-28T06:17:09.019Z,97931.14
2022-09-28T06:20:12.050Z,97934.73
2022-09-28T06:23:15.082Z,97936.95
2022-09-28T06:26:18.326Z,97935.81
2022-09-28T06:29:21.260Z,97932.36
2022-09-28T06:32:26.564Z,97928.52
2022-09-28T06:35:31.535Z,97925.51
2022-09-28T06:38:34.505Z,97926.15
2022-09-28T06:41:37.413Z,97923.66
2022-09-28T06:44:40.399Z,97920.10
2022-09-28T06:47:43.345Z,97913.52
2022-09-28T06:50:46.538Z,97911.44
2022-09-28T06:53:49.381Z,97900.42
2022-09-28T06:56:53.299Z,97892.32
2022-09-28T06:59:56.180Z,97897.73
2022-09-28T07:02:59.017Z,97896.10
2022-09-28T07:06:02.271Z,97890.60
2022-09-28T07:09:25.865Z,97891.46
2022-09-28T07:12:30.397Z,97894.81
2022-09-28T07:15:33.283Z,97894.41
2022-09-28T07:18:36.079Z,97892.02
2022-09-28T07:21:38.984Z,97893.72
2022-09-28T07:24:44.599Z,97901.00
2022-09-28T07:27:58.062Z,97904.64
2022-09-28T07:31:03.642Z,97908.30
2022-09-28T07:34:06.585Z,97909.79
2022-09-28T07:37:12.003Z,97912.17
2022-09-28T07:40:34.097Z,97909.85
2022-09-28T07:43:40.071Z,97907.00
2022-09-28T07:46:44.479Z,97904.18
2022-09-28T07:49:52.191Z,97901.73
2022-09-28T07:52:58.833Z,97895.07
2022-09-28T07:56:17.418Z,97895.22
2022-09-28T07:59:20.577Z,97886.59
2022-09-28T08:02:24.725Z,97886.37
2022-09-28T08:05:32.249Z,97884.38
2022-09-28T08:08:35.870Z,97884.16
2022-09-28T08:11:38.905Z,97883.23
2022-09-28T08:14:42.763Z,97879.63
2022-09-28T08:17:49.625Z,97874.27
2022-09-28T08:21:11.960Z,97874.33
2022-09-28T08:24:16.754Z,97869.98
2022-09-28T08:27:19.618Z,97872.38
2022-09-28T08:30:22.652Z,97873.56
2022-09-28T08:33:53.896Z,97870.95
2022-09-28T08:36:57.907Z,97871.00
2022-09-28T08:40:01.023Z,97866.57
2022-09-28T08:43:15.020Z,97863.86
2022-09-28T08:46:23.889Z,97868.30
2022-09-28T08:49:41.760Z,97878.55
2022-09-28T08:52:49.412Z,97888.77
2022-09-28T08:55:53.189Z,97891.02
2022-09-28T08:59:02.807Z,97897.55
2022-09-28T09:02:24.241Z,97903.17
2022-09-28T09:05:42.899Z,97894.60
2022-09-28T09:08:56.336Z,97886.96
2022-09-28T09:12:02.079Z,97883.97
2022-09-28T09:15:25.656Z,97882.55
2022-09-28T09:18:37.548Z,97875.36
2022-09-28T09:21:46.593Z,97874.09
2022-09-28T09:25:07.483Z,97872.60
2022-09-28T09:28:28.482Z,97868.20
2022-09-28T09:31:47.573Z,97866.11
2022-09-28T09:35:01.585Z,97869.27
2022-09-28T09:38:34.624Z,97871.56
2022-09-28T09:41:46.789Z,97874.52
2022-09-28T09:45:24.756Z,97870.20
2022-09-28T09:48:36.813Z,97871.92
2022-09-28T09:52:03.092Z,97868.42
2022-09-28T09:55:40.801Z,97868.30
2022-09-28T09:58:53.207Z,97871.27
2022-09-28T10:01:57.094Z,97868.12
2022-09-28T10:05:05.210Z,97868.68
2022-09-28T10:08:07.998Z,97866.24
2022-09-28T10:11:17.269Z,97859.64
2022-09-28T10:14:22.962Z,97854.89
2022-09-28T10:17:27.518Z,97856.95
2022-09-28T10:20:35.116Z,97856.54
2022-09-28T10:23:38.143Z,97858.74
2022-09-28T10:26:46.882Z,97859.09
2022-09-28T10:29:54.178Z,97855.42
2022-09-28T10:33:00.847Z,97852.36
2022-09-28T10:36:07.484Z,97851.16
2022-09-28T10:39:24.610Z,97851.65
2022-09-28T10:42:30.757Z,97849.84
2022-09-28T10:45:37.657Z,97849.73
2022-09-28T10:49:13.142Z,97850.77
2022-09-28T10:52:32.822Z,97848.20
2022-09-28T10:55:37.120Z,97846.97
2022-09-28T10:58:42.284Z,97844.98
2022-09-28T11:01:45.239Z,97843.48
2022-09-28T11:04:55.433Z,97843.59
2022-09-28T11:08:00.854Z,97848.68
2022-09-28T11:11:07.726Z,97842.48
2022-09-28T11:14:23.714Z,97844.56
2022-09-28T11:17:30.219Z,97843.35
2022-09-28T11:20:35.698Z,97836.69
2022-09-28T11:23:38.624Z,97833.20
2022-09-28T11:26:44.265Z,97834.05
2022-09-28T11:29:56.180Z,97829.77
2022-09-28T11:33:17.847Z,97829.23
2022-09-28T11:36:30.810Z,97831.09
2022-09-28T11:39:51.542Z,97824.10
2022-09-28T11:43:38.826Z,97822.80
2022-09-28T11:46:59.585Z,97824.52
2022-09-28T11:50:08.434Z,97829.38
2022-09-28T11:53:17.015Z,97824.89
2022-09-28T11:56:32.242Z,97822.75
2022-09-28T11:59:40.142Z,97821.73
2022-09-28T12:02:49.349Z,97819.34
2022-09-28T12:05:58.627Z,97820.08
2022-09-28T12:09:13.436Z,97825.55
2022-09-28T12:12:27.844Z,97831.45
2022-09-28T12:16:07.747Z,97836.64
2022-09-28T12:19:16.758Z,97838.23
2022-09-28T12:22:31.454Z,97844.34
2022-09-28T12:25:46.833Z,97848.23
2022-09-28T12:28:53.411Z,97847.11
2022-09-28T12:32:06.006Z,97843.42
2022-09-28T12:35:15.053Z,97844.70
2022-09-28T12:38:42.764Z,97844.80
2022-09-28T12:42:15.229Z,97844.95
2022-09-28T12:45:21.070Z,97843.66
2022-09-28T12:48:29.835Z,97842.30
2022-09-28T12:51:47.481Z,97838.09
2022-09-28T12:55:00.092Z,97843.58
2022-09-28T12:58:31.329Z,97838.98
2022-09-28T13:01:53.076Z,97833.67
2022-09-28T13:05:34.606Z,97833.29
2022-09-28T13:08:37.533Z,97832.40
2022-09-28T13:12:13.303Z,97834.13
2022-09-28T13:15:32.400Z,97834.31
2022-09-28T13:18:43.805Z,97832.31
2022-09-28T13:21:51.442Z,97826.15
2022-09-28T13:24:57.203Z,97823.50
2022-09-28T13:28:03.864Z,97826.41
2022-09-28T13:31:07.981Z,97825.77
2022-09-28T13:34:18.514Z,97825.42
2022-09-28T13:37:24.580Z,97827.21
2022-09-28T13:41:05.211Z,97826.93
2022-09-28T13:44:16.853Z,97824.20
2022-09-28T13:47:31.063Z,97823.16
2022-09-28T13:51:05.221Z,97822.86
2022-09-28T13:54:15.824Z,97823.73
2022-09-28T13:57:29.614Z,97823.49
2022-09-28T14:00:44.101Z,97824.29
2022-09-28T14:04:19.451Z,97827.05
2022-09-28T14:10:46.593Z,97829.48
2022-09-28T14:14:07.582Z,97830.66
2022-09-28T14:17:19.577Z,97831.36
2022-09-28T14:20:25.566Z,97830.77
2022-09-28T14:23:57.588Z,97825.75
2022-09-28T14:27:27.688Z,97826.84
2022-09-28T14:30:42.826Z,97826.95
2022-09-28T14:33:57.114Z,97828.40
2022-09-28T14:37:22.123Z,97827.61
2022-09-28T14:40:49.725Z,97823.59
2022-09-28T14:44:08.854Z,97825.51
2022-09-28T14:47:38.162Z,97825.42
2022-09-28T14:50:41.247Z,97825.26
2022-09-28T14:53:45.410Z,97825.45
2022-09-28T14:56:54.648Z,97824.67
2022-09-28T14:59:59.850Z,97827.13
2022-09-28T15:03:08.896Z,97826.48
2022-09-28T15:06:20.316Z,97827.20
2022-09-28T15:09:34.841Z,97823.79
2022-09-28T15:12:37.975Z,97830.09
2022-09-28T15:15:41.707Z,97833.35
2022-09-28T15:19:21.141Z,97838.80
2022-09-28T15:22:24.423Z,97836.98
2022-09-28T15:25:30.368Z,97841.20
2022-09-28T15:28:36.235Z,97841.20
2022-09-28T15:31:39.108Z,97844.27
2022-09-28T15:35:02.138Z,97843.55
2022-09-28T15:38:13.636Z,97844.71
2022-09-28T15:41:17.334Z,97843.77
2022-09-28T15:44:37.256Z,97851.61
2022-09-28T15:47:41.490Z,97860.91
2022-09-28T15:50:58.396Z,97861.81
2022-09-28T15:54:09.435Z,97862.48
2022-09-28T15:57:37.319Z,97867.90
2022-09-28T16:00:40.643Z,97874.92
2022-09-28T16:03:43.842Z,97878.33
2022-09-28T16:07:10.143Z,97875.24
2022-09-28T16:10:18.960Z,97877.23
2022-09-28T16:13:24.176Z,97876.41
2022-09-28T16:16:34.436Z,97879.98
2022-09-28T16:19:39.102Z,97881.88
2022-09-28T16:22:43.489Z,97882.52
2022-09-28T16:26:02.185Z,97890.66
2022-09-28T16:29:25.984Z,97895.37
2022-09-28T16:32:36.231Z,97898.27
2022-09-28T16:35:42.122Z,97897.60
2022-09-28T16:38:45.732Z,97900.78
2022-09-28T16:41:59.787Z,97903.83
2022-09-28T16:45:05.391Z,97905.53
2022-09-28T16:48:14.724Z,97908.46
2022-09-28T16:51:19.436Z,97910.49
2022-09-28T16:54:43.493Z,97914.59
2022-09-28T16:57:52.276Z,97916.95
2022-09-28T17:00:55.807Z,97917.17
2022-09-28T17:03:58.947Z,97917.71
2022-09-28T17:07:01.983Z,97918.98
2022-09-28T17:10:19.441Z,97929.02
2022-09-28T17:13:30.158Z,97931.48
2022-09-28T17:17:02.399Z,97934.26
2022-09-28T17:19:56.392Z,97935.48
2022-09-28T17:22:59.454Z,97944.15
2022-09-28T17:26:06.538Z,97951.54
2022-09-28T17:29:14.983Z,97959.04
2022-09-28T17:32:19.248Z,97961.94
2022-09-28T17:35:24.651Z,97970.46
2022-09-28T17:38:28.724Z,97973.75
2022-09-28T17:41:32.783Z,97975.39
2022-09-28T17:44:36.361Z,97981.52
2022-09-28T17:47:39.228Z,97986.15
2022-09-28T17:50:46.384Z,97992.39
2022-09-28T17:53:49.616Z,97995.16
2022-09-28T17:56:52.543Z,98000.60
2022-09-28T17:59:55.361Z,98001.09
2022-09-28T18:02:59.243Z,98004.13
2022-09-28T18:06:06.722Z,98009.45
2022-09-28T18:09:14.082Z,98012.16
2022-09-28T18:12:17.070Z,98016.99
2022-09-28T18:15:19.994Z,98016.42
2022-09-28T18:18:24.192Z,98014.48
2022-09-28T18:21:27.129Z,98016.94
2022-09-28T18:24:32.624Z,98022.71
2022-09-28T18:27:35.525Z,98025.60
2022-09-28T18:30:41.111Z,98025.20
2022-09-28T18:33:43.965Z,98031.25
2022-09-28T18:36:47.382Z,98028.40
2022-09-28T18:39:51.403Z,98030.33
2022-09-28T18:42:54.341Z,98031.39
2022-09-28T18:45:57.316Z,98031.86
2022-09-28T18:49:00.155Z,98036.77
2022-09-28T18:52:03.643Z,98041.78
2022-09-28T18:55:08.247Z,98041.84
2022-09-28T18:58:12.229Z,98040.78
2022-09-28T19:01:32.826Z,98042.80
2022-09-28T19:04:36.614Z,98042.85
2022-09-28T19:07:39.616Z,98044.42
2022-09-28T19:10:42.597Z,98046.99
2022-09-28T19:13:45.599Z,98051.39
2022-09-28T19:16:48.596Z,98051.42
2022-09-28T19:19:52.276Z,98051.60
2022-09-28T19:22:58.182Z,98052.67
2022-09-28T19:26:06.425Z,98055.35
2022-09-28T19:29:13.776Z,98054.19
2022-09-28T19:32:16.555Z,98058.38
2022-09-28T19:35:19.807Z,98059.44
2022-09-28T19:38:23.097Z,98057.86
2022-09-28T19:41:43.475Z,98054.86
2022-09-28T19:44:48.296Z,98054.75
2022-09-28T19:47:52.239Z,98055.23
2022-09-28T19:51:03.096Z,98054.84
2022-09-28T19:54:07.153Z,98055.30
2022-09-28T19:57:11.871Z,98058.09
2022-09-28T20:00:18.166Z,98067.64
2022-09-28T20:03:22.858Z,98068.56
2022-09-28T20:06:27.019Z,98071.83
2022-09-28T20:09:33.309Z,98075.02
2022-09-28T20:12:36.654Z,98078.62
2022-09-28T20:15:40.171Z,98084.89
2022-09-28T20:18:50.906Z,98087.91
2022-09-28T20:21:55.041Z,98099.81
2022-09-28T20:24:58.629Z,98102.05
2022-09-28T20:28:04.867Z,98107.13
2022-09-28T20:31:11.327Z,98103.63
2022-09-28T20:34:14.558Z,98109.55
2022-09-28T20:37:17.820Z,98108.27
2022-09-28T20:40:21.047Z,98109.75
2022-09-28T20:43:24.382Z,98107.33
2022-09-28T20:46:28.088Z,98114.30
2022-09-28T20:49:31.876Z,98104.98
2022-09-28T20:52:35.055Z,98117.74
2022-09-28T20:55:38.045Z,98121.52
2022-09-28T20:58:41.263Z,98124.59
2022-09-28T21:01:44.232Z,98134.71
2022-09-28T21:04:47.083Z,98134.83
2022-09-28T21:07:49.910Z,98135.61
2022-09-28T21:10:54.150Z,98136.16
2022-09-28T21:13:59.615Z,98138.70
2022-09-28T21:17:02.540Z,98140.45
2022-09-28T21:20:07.066Z,98136.48
2022-09-28T21:23:10.797Z,98138.58
2022-09-28T21:26:24.986Z,98142.64
2022-09-28T21:29:28.144Z,98142.63
2022-09-28T21:32:31.161Z,98152.64
2022-09-28T21:35:39.511Z,98154.05
2022-09-28T21:38:42.286Z,98159.19
2022-09-28T21:41:45.173Z,98164.16
2022-09-28T21:44:47.973Z,98166.91
2022-09-28T21:47:54.918Z,98171.38
2022-09-28T21:50:58.915Z,98172.89
2022-09-28T21:54:01.906Z,98179.58
2022-09-28T21:57:04.740Z,98181.67
2022-09-28T22:00:08.731Z,98185.11
2022-09-28T22:03:11.766Z,98188.08
2022-09-28T22:06:16.410Z,98190.89
2022-09-28T22:09:19.370Z,98193.64
2022-09-28T22:12:22.457Z,98195.52
2022-09-28T22:15:25.535Z,98197.25
2022-09-28T22:18:30.417Z,98201.17
2022-09-28T22:21:35.068Z,98204.70
2022-09-28T22:24:37.857Z,98206.31
2022-09-28T22:27:40.819Z,98208.39
2022-09-28T22:30:44.820Z,98211.61
2022-09-28T22:33:48.490Z,98214.15
2022-09-28T22:36:51.238Z,98216.33
2022-09-28T22:39:55.513Z,98218.79
2022-09-28T22:42:58.333Z,98222.77
2022-09-28T22:46:06.714Z,98223.20
2022-09-28T22:49:10.470Z,98225.16
2022-09-28T22:52:13.304Z,98225.45
2022-09-28T22:55:16.203Z,98225.73
2022-09-28T22:58:19.113Z,98227.51
2022-09-28T23:01:28.157Z,98226.02
2022-09-28T23:04:32.075Z,98231.55
2022-09-28T23:07:34.840Z,98235.61
2022-09-28T23:10:37.632Z,98238.27
2022-09-28T23:13:40.413Z,98236.56
2022-09-28T23:16:43.263Z,98236.77
2022-09-28T23:19:46.069Z,98234.07
2022-09-28T23:22:49.696Z,98239.98
2022-09-28T23:25:53.569Z,98240.16
2022-09-28T23:29:20.973Z,98242.73
2022-09-28T23:32:26.531Z,98240.52
2022-09-28T23:35:31.418Z,98238.14
2022-09-28T23:38:34.515Z,98240.56
2022-09-28T23:41:38.223Z,98237.73
2022-09-28T23:44:41.041Z,98241.10
2022-09-28T23:47:43.789Z,98241.93
2022-09-28T23:50:46.616Z,98244.75
2022-09-28T23:53:49.456Z,98249.30
2022-09-28T23:56:52.289Z,98248.85
2022-09-28T23:59:55.236Z,98250.54
